Time;durP1;ratioP1;P1;durP2;ratioP2;P2;SDS_P1;SDS_P2;PMS_P1;PMS_P2;Temp;Humidity;BMP_temperature;BMP_pressure;BME280_temperature;BME280_humidity;BME280_pressure;Samples;Min_cycle;Max_cycle;Signal;HPM_P1;HPM_P2
2023/07/21 00:01:16;;;;;;;5.00;2.45;;;;;;;;;;5113223;28;20051;-83
2023/07/21 00:03:43;;;;;;;2.25;2.00;;;;;;;;;;5113244;28;20207;-83
2023/07/21 00:06:12;;;;;;;2.67;2.08;;;;;;;;;;5113897;28;20048;-83
2023/07/21 00:08:39;;;;;;;2.60;2.40;;;;;;;;;;5114186;28;20495;-83
2023/07/21 00:11:06;;;;;;;2.50;2.30;;;;;;;;;;5112674;28;20043;-82
2023/07/21 00:13:35;;;;;;;2.17;2.08;;;;;;;;;;5113932;28;20055;-83
2023/07/21 00:16:03;;;;;;;2.85;2.65;;;;;;;;;;5112488;28;20050;-83
2023/07/21 00:18:32;;;;;;;2.35;2.15;;;;;;;;;;5112494;28;20043;-83
2023/07/21 00:20:59;;;;;;;2.55;2.03;;;;;;;;;;5112349;28;20048;-83
2023/07/21 00:23:27;;;;;;;3.30;2.15;;;;;;;;;;5112203;28;20054;-83
2023/07/21 00:25:55;;;;;;;2.25;2.03;;;;;;;;;;5113192;28;20051;-83
2023/07/21 00:28:25;;;;;;;2.20;2.10;;;;;;;;;;5113371;28;20071;-80
2023/07/21 00:30:52;;;;;;;2.10;1.95;;;;;;;;;;5115627;28;20422;-82
2023/07/21 00:33:19;;;;;;;4.43;2.78;;;;;;;;;;5115509;28;20056;-83
2023/07/21 00:35:47;;;;;;;2.80;2.60;;;;;;;;;;5115663;28;20089;-83
2023/07/21 00:38:14;;;;;;;2.47;2.25;;;;;;;;;;5116667;28;20048;-81
2023/07/21 00:40:41;;;;;;;2.30;2.20;;;;;;;;;;5115758;28;20116;-81
2023/07/21 00:43:08;;;;;;;2.20;2.10;;;;;;;;;;5115412;28;20534;-81
2023/07/21 00:45:39;;;;;;;2.35;2.20;;;;;;;;;;5116599;27;20059;-82
2023/07/21 00:48:10;;;;;;;2.00;1.90;;;;;;;;;;5116578;28;20053;-82
2023/07/21 00:50:42;;;;;;;2.90;2.30;;;;;;;;;;5115436;28;20051;-82
2023/07/21 00:53:10;;;;;;;2.20;2.10;;;;;;;;;;5116175;28;20040;-82
2023/07/21 00:55:38;;;;;;;2.50;2.40;;;;;;;;;;5116237;28;20043;-81
2023/07/21 00:58:09;;;;;;;2.88;2.30;;;;;;;;;;5115245;28;20062;-81
2023/07/21 01:00:40;;;;;;;2.22;2.13;;;;;;;;;;5115414;28;20558;-82
2023/07/21 01:03:10;;;;;;;3.97;2.55;;;;;;;;;;5115541;28;20507;-82
2023/07/21 01:05:42;;;;;;;4.50;2.55;;;;;;;;;;5116262;28;20507;-82
2023/07/21 01:08:11;;;;;;;3.25;2.95;;;;;;;;;;5114741;28;20514;-82
2023/07/21 01:10:39;;;;;;;4.00;2.75;;;;;;;;;;5118751;28;20052;-83
2023/07/21 01:13:09;;;;;;;4.22;2.50;;;;;;;;;;5118905;28;20062;-84
2023/07/21 01:15:38;;;;;;;3.08;2.85;;;;;;;;;;5117720;28;20039;-83
2023/07/21 01:18:07;;;;;;;3.08;2.88;;;;;;;;;;5117160;28;20054;-83
2023/07/21 01:20:36;;;;;;;5.10;3.13;;;;;;;;;;5117038;28;20047;-83
2023/07/21 01:23:27;;;;;;;2.83;2.60;;;;;;;;;;5117033;28;20065;-84
2023/07/21 01:25:56;;;;;;;2.67;2.47;;;;;;;;;;5117088;28;20399;-84
2023/07/21 01:28:24;;;;;;;3.05;2.85;;;;;;;;;;5116992;28;20047;-83
2023/07/21 01:30:53;;;;;;;2.78;2.63;;;;;;;;;;5116901;28;20048;-83
2023/07/21 01:33:21;;;;;;;2.85;2.65;;;;;;;;;;5115801;28;20050;-83
2023/07/21 01:35:48;;;;;;;3.55;3.25;;;;;;;;;;5117029;28;20044;-83
2023/07/21 01:38:17;;;;;;;2.70;2.50;;;;;;;;;;5116426;28;20040;-83
2023/07/21 01:40:45;;;;;;;3.15;2.95;;;;;;;;;;5116974;28;20500;-83
2023/07/21 01:43:14;;;;;;;3.10;2.90;;;;;;;;;;5116508;28;20051;-82
2023/07/21 01:45:42;;;;;;;5.18;2.92;;;;;;;;;;5115254;28;20059;-83
2023/07/21 01:48:10;;;;;;;3.03;2.83;;;;;;;;;;5115275;28;20078;-82
2023/07/21 01:50:39;;;;;;;4.72;3.25;;;;;;;;;;5116431;28;20051;-83
2023/07/21 01:53:08;;;;;;;3.13;2.92;;;;;;;;;;5114783;28;20075;-83
2023/07/21 01:55:43;;;;;;;3.20;2.97;;;;;;;;;;5115068;28;20123;-83
2023/07/21 01:58:11;;;;;;;2.90;2.80;;;;;;;;;;5114351;28;20043;-80
2023/07/21 02:00:41;;;;;;;3.72;2.95;;;;;;;;;;5114739;28;20093;-82
2023/07/21 02:03:18;;;;;;;2.90;2.70;;;;;;;;;;5115445;28;20074;-82
2023/07/21 02:05:46;;;;;;;3.00;2.80;;;;;;;;;;5113642;28;20051;-81
2023/07/21 02:08:14;;;;;;;2.63;2.45;;;;;;;;;;5114611;28;20490;-81
2023/07/21 02:10:42;;;;;;;2.63;2.42;;;;;;;;;;5115366;28;20055;-81
2023/07/21 02:13:10;;;;;;;2.92;2.72;;;;;;;;;;5122643;28;20096;-82
2023/07/21 02:15:37;;;;;;;3.47;2.55;;;;;;;;;;5122327;28;20055;-84
2023/07/21 02:18:04;;;;;;;2.53;2.38;;;;;;;;;;5121698;28;20043;-84
2023/07/21 02:20:32;;;;;;;3.15;2.50;;;;;;;;;;5117539;28;20051;-84
2023/07/21 02:23:00;;;;;;;8.27;2.78;;;;;;;;;;5116624;28;20491;-82
2023/07/21 02:25:27;;;;;;;2.35;2.22;;;;;;;;;;5115086;28;20442;-83
2023/07/21 02:27:54;;;;;;;16.63;3.38;;;;;;;;;;5117176;28;20066;-83
2023/07/21 02:30:23;;;;;;;2.72;2.53;;;;;;;;;;5115945;28;20453;-84
2023/07/21 02:32:50;;;;;;;2.78;2.58;;;;;;;;;;5115700;28;20503;-83
2023/07/21 02:35:17;;;;;;;2.80;2.70;;;;;;;;;;5116960;28;20044;-83
2023/07/21 02:37:45;;;;;;;3.28;2.80;;;;;;;;;;5116427;28;20052;-83
2023/07/21 02:40:12;;;;;;;3.17;2.90;;;;;;;;;;5116265;28;20425;-83
2023/07/21 02:42:39;;;;;;;4.45;2.92;;;;;;;;;;5115415;28;20538;-83
2023/07/21 02:45:07;;;;;;;5.05;2.90;;;;;;;;;;5116698;28;20043;-83
2023/07/21 02:47:34;;;;;;;4.05;2.78;;;;;;;;;;5117591;28;20051;-83
2023/07/21 02:50:01;;;;;;;3.50;3.08;;;;;;;;;;5115029;28;20073;-84
2023/07/21 02:52:29;;;;;;;5.90;2.90;;;;;;;;;;5116016;28;20055;-82
2023/07/21 02:54:56;;;;;;;6.05;3.40;;;;;;;;;;5116014;28;20053;-84
2023/07/21 02:57:24;;;;;;;22.98;3.58;;;;;;;;;;5116905;28;20048;-83
2023/07/21 02:59:51;;;;;;;6.80;2.63;;;;;;;;;;5115780;28;20050;-84
2023/07/21 03:02:19;;;;;;;2.60;2.42;;;;;;;;;;5115359;28;20052;-83
2023/07/21 03:04:46;;;;;;;3.20;2.30;;;;;;;;;;5115711;28;20047;-83
2023/07/21 03:07:14;;;;;;;2.58;2.47;;;;;;;;;;5114498;28;20055;-83
2023/07/21 03:09:41;;;;;;;4.50;2.65;;;;;;;;;;5114458;28;20090;-83
2023/07/21 03:12:09;;;;;;;2.97;2.72;;;;;;;;;;5115014;27;20043;-81
2023/07/21 03:14:36;;;;;;;3.35;2.85;;;;;;;;;;5113901;28;20048;-84
2023/07/21 03:17:03;;;;;;;2.78;2.58;;;;;;;;;;5113744;28;20044;-84
2023/07/21 03:19:30;;;;;;;3.42;2.92;;;;;;;;;;5113720;28;20044;-83
2023/07/21 03:21:58;;;;;;;5.05;2.90;;;;;;;;;;5113764;28;20044;-83
2023/07/21 03:24:25;;;;;;;3.35;2.47;;;;;;;;;;5114520;28;20617;-82
2023/07/21 03:26:52;;;;;;;3.38;2.90;;;;;;;;;;5113052;28;20669;-83
2023/07/21 03:29:19;;;;;;;3.30;2.97;;;;;;;;;;5114389;28;20052;-83
2023/07/21 03:31:48;;;;;;;3.70;3.15;;;;;;;;;;5113631;28;20054;-83
2023/07/21 03:34:15;;;;;;;3.60;3.40;;;;;;;;;;5114762;28;20536;-81
2023/07/21 03:36:43;;;;;;;6.70;3.60;;;;;;;;;;5113286;28;20119;-83
2023/07/21 03:39:10;;;;;;;7.32;3.42;;;;;;;;;;5114123;28;20088;-83
2023/07/21 03:41:37;;;;;;;6.40;3.13;;;;;;;;;;5111946;28;20388;-81
2023/07/21 03:44:04;;;;;;;3.83;3.53;;;;;;;;;;5111878;28;20093;-81
2023/07/21 03:46:32;;;;;;;3.83;3.38;;;;;;;;;;5111468;28;20054;-82
2023/07/21 03:48:59;;;;;;;4.00;3.70;;;;;;;;;;5112943;28;20074;-81
2023/07/21 03:51:26;;;;;;;4.43;3.38;;;;;;;;;;5113270;28;20092;-82
2023/07/21 03:53:56;;;;;;;6.57;3.15;;;;;;;;;;5111575;28;20046;-82
2023/07/21 03:56:24;;;;;;;5.70;2.92;;;;;;;;;;5111697;28;20051;-82
2023/07/21 03:58:53;;;;;;;3.75;3.15;;;;;;;;;;5111909;28;20054;-81
2023/07/21 04:01:21;;;;;;;4.60;3.10;;;;;;;;;;5112471;28;20043;-80
2023/07/21 04:03:48;;;;;;;5.60;3.35;;;;;;;;;;5111936;28;20122;-82
2023/07/21 04:06:18;;;;;;;3.25;3.05;;;;;;;;;;5111773;28;20081;-82
2023/07/21 04:08:45;;;;;;;4.80;3.50;;;;;;;;;;5113229;28;20094;-82
2023/07/21 04:11:12;;;;;;;4.85;3.30;;;;;;;;;;5111404;28;20047;-82
2023/07/21 04:13:39;;;;;;;3.95;3.10;;;;;;;;;;5112703;28;20063;-82
2023/07/21 04:16:06;;;;;;;4.22;2.67;;;;;;;;;;5111827;28;20044;-82
2023/07/21 04:18:36;;;;;;;2.20;2.10;;;;;;;;;;5113415;28;20051;-82
2023/07/21 04:21:03;;;;;;;2.35;2.20;;;;;;;;;;5112731;28;20135;-83
2023/07/21 04:23:30;;;;;;;2.72;2.53;;;;;;;;;;5115676;28;20048;-84
2023/07/21 04:25:57;;;;;;;2.95;2.50;;;;;;;;;;5114777;28;20056;-84
2023/07/21 04:28:24;;;;;;;2.75;2.45;;;;;;;;;;5113861;28;20143;-83
2023/07/21 04:30:56;;;;;;;5.03;2.45;;;;;;;;;;5115120;28;20083;-84
2023/07/21 04:33:23;;;;;;;4.78;2.60;;;;;;;;;;5115275;28;20044;-84
2023/07/21 04:35:51;;;;;;;3.47;2.38;;;;;;;;;;5114834;28;20053;-84
2023/07/21 04:38:18;;;;;;;3.15;2.88;;;;;;;;;;5113504;28;20040;-84
2023/07/21 04:40:45;;;;;;;3.05;2.85;;;;;;;;;;5113273;28;20242;-83
2023/07/21 04:43:13;;;;;;;4.03;2.65;;;;;;;;;;5114188;28;20051;-84
2023/07/21 04:45:42;;;;;;;2.72;2.58;;;;;;;;;;5112852;28;20048;-84
2023/07/21 04:48:09;;;;;;;2.53;2.22;;;;;;;;;;5114013;28;20096;-83
2023/07/21 04:50:37;;;;;;;5.55;2.58;;;;;;;;;;5112812;28;20059;-83
2023/07/21 04:53:04;;;;;;;3.35;2.45;;;;;;;;;;5113310;28;20089;-82
2023/07/21 04:55:32;;;;;;;3.67;2.92;;;;;;;;;;5113819;28;20044;-81
2023/07/21 04:58:01;;;;;;;3.78;3.10;;;;;;;;;;5113849;28;20044;-84
2023/07/21 05:00:28;;;;;;;3.03;2.72;;;;;;;;;;5113053;28;20051;-82
2023/07/21 05:02:56;;;;;;;3.00;2.85;;;;;;;;;;5113595;28;20101;-83
2023/07/21 05:05:23;;;;;;;3.95;2.78;;;;;;;;;;5111769;28;20100;-83
2023/07/21 05:07:51;;;;;;;4.85;3.35;;;;;;;;;;5110882;28;20105;-81
2023/07/21 05:10:19;;;;;;;7.35;3.83;;;;;;;;;;5111352;28;20054;-83
2023/07/21 05:12:46;;;;;;;5.07;3.45;;;;;;;;;;5111601;28;20055;-83
2023/07/21 05:15:13;;;;;;;5.53;3.50;;;;;;;;;;5115301;28;20047;-81
2023/07/21 05:17:41;;;;;;;4.97;3.10;;;;;;;;;;5114724;28;20039;-82
2023/07/21 05:20:11;;;;;;;3.17;3.00;;;;;;;;;;5115795;28;20048;-82
2023/07/21 05:22:38;;;;;;;7.55;3.17;;;;;;;;;;5114416;28;20055;-83
2023/07/21 05:25:11;;;;;;;4.13;3.50;;;;;;;;;;5114577;28;20087;-82
2023/07/21 05:27:39;;;;;;;3.05;2.85;;;;;;;;;;5115586;28;20063;-83
2023/07/21 05:30:06;;;;;;;3.67;3.42;;;;;;;;;;5115897;28;20097;-82
2023/07/21 05:32:33;;;;;;;3.92;3.58;;;;;;;;;;5114158;28;20096;-81
2023/07/21 05:35:09;;;;;;;3.33;3.13;;;;;;;;;;5115619;27;20075;-82
2023/07/21 05:37:36;;;;;;;3.65;3.30;;;;;;;;;;5114443;28;20054;-82
2023/07/21 05:40:05;;;;;;;3.75;3.20;;;;;;;;;;5115697;27;20052;-81
2023/07/21 05:42:32;;;;;;;3.15;2.95;;;;;;;;;;5114371;28;20101;-82
2023/07/21 05:45:01;;;;;;;3.15;2.60;;;;;;;;;;5115759;28;20463;-82
2023/07/21 05:47:30;;;;;;;3.17;2.92;;;;;;;;;;5115114;27;20055;-82
2023/07/21 05:50:01;;;;;;;4.05;3.30;;;;;;;;;;5115180;28;20139;-83
2023/07/21 05:52:28;;;;;;;2.60;2.50;;;;;;;;;;5113978;28;20112;-81
2023/07/21 05:54:56;;;;;;;2.85;2.65;;;;;;;;;;5114146;28;20403;-83
2023/07/21 05:57:23;;;;;;;4.85;2.80;;;;;;;;;;5115681;28;20047;-84
2023/07/21 05:59:50;;;;;;;5.00;2.72;;;;;;;;;;5117811;28;20064;-84
2023/07/21 06:02:17;;;;;;;6.47;3.00;;;;;;;;;;5118044;28;20039;-84
2023/07/21 06:04:46;;;;;;;10.25;3.10;;;;;;;;;;5116596;28;20097;-84
2023/07/21 06:07:15;;;;;;;2.55;2.35;;;;;;;;;;5116678;28;20048;-83
2023/07/21 06:09:43;;;;;;;2.45;2.22;;;;;;;;;;5115937;28;20043;-83
2023/07/21 06:12:10;;;;;;;2.85;2.75;;;;;;;;;;5117387;28;20487;-82
2023/07/21 06:14:38;;;;;;;2.95;2.50;;;;;;;;;;5116112;28;20043;-84
2023/07/21 06:17:05;;;;;;;3.13;2.60;;;;;;;;;;5117137;28;20252;-84
2023/07/21 06:19:34;;;;;;;19.45;5.10;;;;;;;;;;5115248;28;20518;-84
2023/07/21 06:22:01;;;;;;;15.88;4.93;;;;;;;;;;5115045;28;20490;-82
2023/07/21 06:24:29;;;;;;;19.48;5.82;;;;;;;;;;5115492;28;20120;-83
2023/07/21 06:26:56;;;;;;;17.90;5.05;;;;;;;;;;5115522;28;20064;-84
2023/07/21 06:29:23;;;;;;;6.10;3.40;;;;;;;;;;5116322;28;20564;-84
2023/07/21 06:31:51;;;;;;;2.83;2.63;;;;;;;;;;5115120;28;20101;-81
2023/07/21 06:34:18;;;;;;;5.45;2.78;;;;;;;;;;5114209;28;20047;-84
2023/07/21 06:36:46;;;;;;;3.00;2.60;;;;;;;;;;5115967;28;20047;-83
2023/07/21 06:39:13;;;;;;;4.95;2.63;;;;;;;;;;5113717;28;20392;-81
2023/07/21 06:41:40;;;;;;;3.67;2.50;;;;;;;;;;5115202;28;20062;-83
2023/07/21 06:44:07;;;;;;;3.05;2.38;;;;;;;;;;5114077;28;20051;-81
2023/07/21 06:46:35;;;;;;;3.30;3.10;;;;;;;;;;5114086;28;20051;-80
2023/07/21 06:49:02;;;;;;;2.47;2.33;;;;;;;;;;5115342;28;20051;-81
2023/07/21 06:51:29;;;;;;;2.50;2.38;;;;;;;;;;5113780;28;20051;-82
2023/07/21 06:53:57;;;;;;;3.05;2.65;;;;;;;;;;5114329;27;20047;-81
2023/07/21 06:56:24;;;;;;;4.07;2.53;;;;;;;;;;5114054;28;20073;-79
2023/07/21 06:58:51;;;;;;;3.50;2.70;;;;;;;;;;5114619;28;20097;-81
2023/07/21 07:01:18;;;;;;;3.47;2.50;;;;;;;;;;5112807;28;20040;-81
2023/07/21 07:03:45;;;;;;;6.28;2.75;;;;;;;;;;5113053;28;20418;-81
2023/07/21 07:06:14;;;;;;;4.10;2.60;;;;;;;;;;5113955;28;20051;-81
2023/07/21 07:08:42;;;;;;;5.63;2.80;;;;;;;;;;5112705;28;20503;-81
2023/07/21 07:11:11;;;;;;;2.90;2.38;;;;;;;;;;5113451;28;20057;-83
2023/07/21 07:13:39;;;;;;;2.70;2.30;;;;;;;;;;5115006;28;20097;-81
2023/07/21 07:16:06;;;;;;;2.40;2.20;;;;;;;;;;5113766;28;20104;-81
2023/07/21 07:18:33;;;;;;;2.70;2.50;;;;;;;;;;5114017;28;20055;-81
2023/07/21 07:21:01;;;;;;;4.72;2.53;;;;;;;;;;5112825;28;20040;-81
2023/07/21 07:23:28;;;;;;;2.28;2.17;;;;;;;;;;5113576;28;20116;-81
2023/07/21 07:25:55;;;;;;;2.72;2.55;;;;;;;;;;5119888;28;20056;-81
2023/07/21 07:28:23;;;;;;;2.90;2.40;;;;;;;;;;5119434;28;20051;-83
2023/07/21 07:30:50;;;;;;;2.63;2.42;;;;;;;;;;5113651;28;20051;-81
2023/07/21 07:33:17;;;;;;;2.92;2.58;;;;;;;;;;5113030;28;20580;-83
2023/07/21 07:35:48;;;;;;;2.50;2.33;;;;;;;;;;5117118;28;20051;-84
2023/07/21 07:38:23;;;;;;;3.22;2.40;;;;;;;;;;5115255;28;20130;-83
2023/07/21 07:40:51;;;;;;;2.60;2.22;;;;;;;;;;5116288;28;20044;-83
2023/07/21 07:43:18;;;;;;;2.22;2.00;;;;;;;;;;5114621;28;20051;-83
2023/07/21 07:45:46;;;;;;;2.50;2.30;;;;;;;;;;5114061;28;20058;-83
2023/07/21 07:48:14;;;;;;;2.63;1.98;;;;;;;;;;5114120;28;20483;-83
2023/07/21 07:50:41;;;;;;;2.30;2.10;;;;;;;;;;5115514;28;20051;-83
2023/07/21 07:53:09;;;;;;;2.35;2.15;;;;;;;;;;5113979;28;20499;-84
2023/07/21 07:55:38;;;;;;;4.18;2.28;;;;;;;;;;5113992;28;20051;-83
2023/07/21 07:58:06;;;;;;;2.00;1.90;;;;;;;;;;5115350;28;20047;-82
2023/07/21 08:00:38;;;;;;;2.15;2.03;;;;;;;;;;5114612;28;20043;-83
2023/07/21 08:03:06;;;;;;;2.17;2.00;;;;;;;;;;5114658;28;20047;-83
2023/07/21 08:05:34;;;;;;;2.17;2.08;;;;;;;;;;5113601;28;20050;-84
2023/07/21 08:08:02;;;;;;;2.55;2.33;;;;;;;;;;5115181;28;20044;-83
2023/07/21 08:10:30;;;;;;;4.70;2.33;;;;;;;;;;5114573;27;20138;-82
2023/07/21 08:13:00;;;;;;;2.70;1.90;;;;;;;;;;5114718;27;20523;-83
2023/07/21 08:15:27;;;;;;;6.53;1.95;;;;;;;;;;5112892;28;20104;-82
2023/07/21 08:17:55;;;;;;;2.15;2.05;;;;;;;;;;5113495;28;20051;-80
2023/07/21 08:20:22;;;;;;;2.08;1.98;;;;;;;;;;5113052;28;20055;-81
2023/07/21 08:22:50;;;;;;;2.00;1.90;;;;;;;;;;5113808;28;20051;-81
2023/07/21 08:25:18;;;;;;;2.17;2.05;;;;;;;;;;5114772;28;20062;-80
2023/07/21 08:27:46;;;;;;;2.50;2.30;;;;;;;;;;5113419;28;20112;-81
2023/07/21 08:30:14;;;;;;;2.25;2.05;;;;;;;;;;5111747;28;20191;-81
2023/07/21 08:32:42;;;;;;;3.42;2.50;;;;;;;;;;5111754;28;20058;-83
2023/07/21 08:35:09;;;;;;;4.75;2.45;;;;;;;;;;5111374;28;20052;-81
2023/07/21 08:37:38;;;;;;;2.80;2.60;;;;;;;;;;5111814;28;20051;-81
2023/07/21 08:40:09;;;;;;;2.75;2.65;;;;;;;;;;5112631;28;20055;-81
2023/07/21 08:42:36;;;;;;;16.23;3.45;;;;;;;;;;5111899;28;20039;-81
2023/07/21 08:45:04;;;;;;;9.18;3.30;;;;;;;;;;5111856;28;20414;-81
2023/07/21 08:47:32;;;;;;;4.90;2.50;;;;;;;;;;5113257;27;20051;-80
2023/07/21 08:50:00;;;;;;;4.07;2.80;;;;;;;;;;5115708;28;20047;-82
2023/07/21 08:52:27;;;;;;;3.80;3.50;;;;;;;;;;5115984;28;20102;-82
2023/07/21 08:54:54;;;;;;;3.47;2.83;;;;;;;;;;5116171;28;20048;-83
2023/07/21 08:57:23;;;;;;;3.33;3.05;;;;;;;;;;5117339;28;20051;-82
2023/07/21 08:59:50;;;;;;;3.47;3.20;;;;;;;;;;5116819;28;20129;-81
2023/07/21 09:02:17;;;;;;;4.78;3.40;;;;;;;;;;5116411;28;20631;-81
2023/07/21 09:04:44;;;;;;;4.68;3.80;;;;;;;;;;5116583;28;20052;-80
2023/07/21 09:07:12;;;;;;;6.80;4.13;;;;;;;;;;5117560;28;20101;-80
2023/07/21 09:09:39;;;;;;;4.15;3.92;;;;;;;;;;5119393;27;20043;-81
2023/07/21 09:12:14;;;;;;;6.25;4.32;;;;;;;;;;5122770;28;20512;-83
2023/07/21 09:14:43;;;;;;;5.20;4.80;;;;;;;;;;5122203;28;20051;-83
2023/07/21 09:17:12;;;;;;;6.20;5.30;;;;;;;;;;5123227;28;20124;-83
2023/07/21 09:19:40;;;;;;;7.05;5.25;;;;;;;;;;5121720;28;20052;-83
2023/07/21 09:22:08;;;;;;;6.15;5.55;;;;;;;;;;5121402;28;20039;-83
2023/07/21 09:24:37;;;;;;;6.88;5.47;;;;;;;;;;5120703;28;20062;-82
2023/07/21 09:27:22;;;;;;;9.45;6.10;;;;;;;;;;5120493;28;20059;-83
2023/07/21 09:29:58;;;;;;;8.38;6.38;;;;;;;;;;5119010;28;20069;-83
2023/07/21 09:32:26;;;;;;;5.65;5.15;;;;;;;;;;5119898;28;20055;-83
2023/07/21 09:34:54;;;;;;;5.60;5.18;;;;;;;;;;5118596;28;20050;-81
2023/07/21 09:37:22;;;;;;;5.72;4.32;;;;;;;;;;5119143;28;20055;-83
2023/07/21 09:39:53;;;;;;;5.07;4.57;;;;;;;;;;5117691;28;20083;-82
2023/07/21 09:42:25;;;;;;;5.03;4.13;;;;;;;;;;5118608;28;20051;-82
2023/07/21 09:44:53;;;;;;;4.13;3.83;;;;;;;;;;5116335;28;20108;-82
2023/07/21 09:47:20;;;;;;;4.93;4.13;;;;;;;;;;5117241;28;20107;-82
2023/07/21 09:49:49;;;;;;;4.50;4.20;;;;;;;;;;5116453;28;20059;-82
2023/07/21 09:52:17;;;;;;;4.30;4.00;;;;;;;;;;5115843;28;20048;-82
2023/07/21 09:54:46;;;;;;;5.40;4.15;;;;;;;;;;5115730;28;20112;-82
2023/07/21 09:57:20;;;;;;;4.53;4.22;;;;;;;;;;5116451;28;20043;-82
2023/07/21 09:59:47;;;;;;;;;;;;;;;;;;5115524;28;20052;-82
2023/07/21 10:02:15;;;;;;;3.55;3.28;;;;;;;;;;5117021;28;20436;-82
2023/07/21 10:04:46;;;;;;;3.42;3.13;;;;;;;;;;5114941;28;20546;-81
2023/07/21 10:07:14;;;;;;;3.40;3.17;;;;;;;;;;5115059;28;20054;-81
2023/07/21 10:09:47;;;;;;;4.07;3.47;;;;;;;;;;5114970;28;20071;-82
2023/07/21 10:12:14;;;;;;;4.55;3.28;;;;;;;;;;5114361;28;20043;-82
2023/07/21 10:14:42;;;;;;;3.58;3.28;;;;;;;;;;5116165;28;20492;-80
2023/07/21 10:17:10;;;;;;;5.55;3.05;;;;;;;;;;5115304;28;20556;-82
2023/07/21 10:19:41;;;;;;;4.95;3.25;;;;;;;;;;5114317;28;20047;-81
2023/07/21 10:22:12;;;;;;;9.00;3.38;;;;;;;;;;5114289;28;20503;-81
2023/07/21 10:24:44;;;;;;;2.63;2.42;;;;;;;;;;5115755;28;20062;-80
2023/07/21 10:27:19;;;;;;;3.28;3.00;;;;;;;;;;5113633;28;20047;-81
2023/07/21 10:29:47;;;;;;;2.97;2.78;;;;;;;;;;5114510;28;20347;-81
2023/07/21 10:32:14;;;;;;;3.15;2.97;;;;;;;;;;5114077;28;20097;-82
2023/07/21 10:34:42;;;;;;;3.17;3.00;;;;;;;;;;5114078;28;20101;-81
2023/07/21 10:37:09;;;;;;;2.55;2.45;;;;;;;;;;5113778;28;20479;-81
2023/07/21 10:39:43;;;;;;;2.75;2.65;;;;;;;;;;5113931;28;20047;-82
2023/07/21 10:42:11;;;;;;;2.85;2.65;;;;;;;;;;5114745;28;20568;-81
2023/07/21 10:44:44;;;;;;;2.58;2.47;;;;;;;;;;5114004;28;20051;-81
2023/07/21 10:47:16;;;;;;;1.97;1.77;;;;;;;;;;5117108;28;20117;-82
2023/07/21 10:49:44;;;;;;;5.32;2.00;;;;;;;;;;5116994;28;20355;-82
2023/07/21 10:52:11;;;;;;;3.22;2.15;;;;;;;;;;5116666;28;20047;-83
2023/07/21 10:54:40;;;;;;;2.20;1.98;;;;;;;;;;5116731;28;20051;-83
2023/07/21 10:57:08;;;;;;;2.40;1.88;;;;;;;;;;5114788;28;20507;-84
2023/07/21 10:59:36;;;;;;;1.92;1.90;;;;;;;;;;5116648;28;20066;-82
2023/07/21 11:02:06;;;;;;;1.85;1.75;;;;;;;;;;5116317;28;20073;-83
2023/07/21 11:04:35;;;;;;;2.10;2.00;;;;;;;;;;5114950;28;20047;-84
2023/07/21 11:07:03;;;;;;;2.22;2.10;;;;;;;;;;5114066;28;20050;-82
2023/07/21 11:09:36;;;;;;;2.03;1.92;;;;;;;;;;5115162;28;20055;-83
2023/07/21 11:12:04;;;;;;;2.05;1.95;;;;;;;;;;5113767;28;20047;-82
2023/07/21 11:14:32;;;;;;;2.42;2.22;;;;;;;;;;5115247;28;20074;-83
2023/07/21 11:17:03;;;;;;;2.45;2.30;;;;;;;;;;5114854;28;20047;-82
2023/07/21 11:19:32;;;;;;;2.75;1.90;;;;;;;;;;5114895;28;20047;-82
2023/07/21 11:21:59;;;;;;;1.75;1.70;;;;;;;;;;5114832;28;20059;-83
2023/07/21 11:24:28;;;;;;;2.10;2.00;;;;;;;;;;5114581;28;20058;-83
2023/07/21 11:27:06;;;;;;;2.28;1.92;;;;;;;;;;5113307;28;20108;-82
2023/07/21 11:29:39;;;;;;;2.17;1.95;;;;;;;;;;5113184;28;20058;-83
2023/07/21 11:32:17;;;;;;;2.85;2.05;;;;;;;;;;5112759;28;20511;-81
2023/07/21 11:34:45;;;;;;;1.90;1.80;;;;;;;;;;5114500;28;20052;-83
2023/07/21 11:37:15;;;;;;;1.60;1.60;;;;;;;;;;5112422;28;20560;-82
2023/07/21 11:39:43;;;;;;;2.20;2.10;;;;;;;;;;5112722;28;20043;-82
2023/07/21 11:42:10;;;;;;;1.92;1.83;;;;;;;;;;5112063;28;20054;-81
2023/07/21 11:44:38;;;;;;;1.80;1.70;;;;;;;;;;5112040;28;20499;-83
2023/07/21 11:47:08;;;;;;;2.70;1.80;;;;;;;;;;5113180;28;20043;-82
2023/07/21 11:49:46;;;;;;;1.60;1.60;;;;;;;;;;5112230;28;20108;-82
2023/07/21 11:52:24;;;;;;;1.70;1.60;;;;;;;;;;5112376;28;20054;-81
2023/07/21 11:54:53;;;;;;;1.48;1.38;;;;;;;;;;5112382;28;20040;-81
2023/07/21 11:57:20;;;;;;;2.67;1.60;;;;;;;;;;5111768;28;20448;-81
2023/07/21 11:59:47;;;;;;;2.00;1.90;;;;;;;;;;5113188;28;20499;-79
2023/07/21 12:02:16;;;;;;;1.70;1.60;;;;;;;;;;5112990;28;20048;-81
2023/07/21 12:04:44;;;;;;;0.88;0.88;;;;;;;;;;5112395;28;20400;-81
2023/07/21 12:07:11;;;;;;;1.48;1.38;;;;;;;;;;5111449;28;20404;-80
2023/07/21 12:09:39;;;;;;;1.38;1.38;;;;;;;;;;5113021;28;20292;-81
2023/07/21 12:12:07;;;;;;;1.33;1.33;;;;;;;;;;5113410;28;20426;-82
2023/07/21 12:14:35;;;;;;;1.65;1.27;;;;;;;;;;5113176;28;20059;-79
2023/07/21 12:17:03;;;;;;;2.40;1.35;;;;;;;;;;5111124;28;20540;-78
2023/07/21 12:19:31;;;;;;;1.80;1.50;;;;;;;;;;5111634;28;20469;-80
2023/07/21 12:21:58;;;;;;;3.05;1.80;;;;;;;;;;5114307;27;20054;-82
2023/07/21 12:24:25;;;;;;;2.42;1.63;;;;;;;;;;5123041;28;20481;-83
2023/07/21 12:26:52;;;;;;;1.48;1.33;;;;;;;;;;5121706;28;20051;-81
2023/07/21 12:29:20;;;;;;;1.52;1.42;;;;;;;;;;5123565;27;20241;-83
2023/07/21 12:32:04;;;;;;;1.85;1.58;;;;;;;;;;5122868;27;20058;-82
2023/07/21 12:34:32;;;;;;;1.73;1.63;;;;;;;;;;5124272;27;20068;-81
2023/07/21 12:36:59;;;;;;;1.63;1.52;;;;;;;;;;5123127;27;20052;-82
2023/07/21 12:39:26;;;;;;;2.92;1.15;;;;;;;;;;5122424;28;20048;-81
2023/07/21 12:41:54;;;;;;;1.77;1.67;;;;;;;;;;5122049;28;20043;-82
2023/07/21 12:44:23;;;;;;;1.35;1.25;;;;;;;;;;5121282;28;20571;-81
2023/07/21 12:46:51;;;;;;;1.25;1.23;;;;;;;;;;5120575;28;20104;-80
2023/07/21 12:49:18;;;;;;;4.05;1.73;;;;;;;;;;5120902;28;20430;-81
2023/07/21 12:51:46;;;;;;;1.55;1.45;;;;;;;;;;5120529;28;20103;-83
2023/07/21 12:54:13;;;;;;;1.45;1.20;;;;;;;;;;5120839;28;20051;-83
2023/07/21 12:56:40;;;;;;;2.85;1.60;;;;;;;;;;5121110;28;20048;-81
2023/07/21 12:59:07;;;;;;;1.90;1.80;;;;;;;;;;5121762;27;20078;-82
2023/07/21 13:01:35;;;;;;;1.98;1.42;;;;;;;;;;5119790;28;20058;-80
2023/07/21 13:04:02;;;;;;;3.05;1.58;;;;;;;;;;5119910;28;20055;-82
2023/07/21 13:06:29;;;;;;;3.60;1.90;;;;;;;;;;5119947;28;20511;-82
2023/07/21 13:09:01;;;;;;;1.98;1.70;;;;;;;;;;5119317;28;20077;-81
2023/07/21 13:11:28;;;;;;;1.65;1.60;;;;;;;;;;5119246;28;20051;-82
2023/07/21 13:13:55;;;;;;;3.15;1.88;;;;;;;;;;5118551;28;20100;-81
2023/07/21 13:16:23;;;;;;;2.95;1.58;;;;;;;;;;5119329;28;20051;-81
2023/07/21 13:18:51;;;;;;;2.63;1.88;;;;;;;;;;5118809;28;20507;-81
2023/07/21 13:21:19;;;;;;;2.45;2.00;;;;;;;;;;5118753;28;20051;-81
2023/07/21 13:23:46;;;;;;;5.00;1.88;;;;;;;;;;5120390;27;20043;-80
2023/07/21 13:26:13;;;;;;;4.07;1.48;;;;;;;;;;5118435;28;20059;-82
2023/07/21 13:28:40;;;;;;;1.80;1.70;;;;;;;;;;5118757;28;20051;-80
2023/07/21 13:31:08;;;;;;;1.52;1.50;;;;;;;;;;5118634;28;20047;-82
2023/07/21 13:33:35;;;;;;;2.53;1.60;;;;;;;;;;5118489;28;20079;-81
2023/07/21 13:36:02;;;;;;;1.98;1.55;;;;;;;;;;5114401;28;20122;-81
2023/07/21 13:38:30;;;;;;;2.20;1.88;;;;;;;;;;5117052;28;20050;-83
2023/07/21 13:40:58;;;;;;;3.60;1.60;;;;;;;;;;5115513;28;20406;-82
2023/07/21 13:43:25;;;;;;;1.40;1.40;;;;;;;;;;5115939;27;20101;-82
2023/07/21 13:45:53;;;;;;;1.90;1.80;;;;;;;;;;5114932;28;20055;-81
2023/07/21 13:48:20;;;;;;;2.13;1.70;;;;;;;;;;5115109;28;20051;-82
2023/07/21 13:50:47;;;;;;;6.22;2.50;;;;;;;;;;5114939;28;20052;-81
2023/07/21 13:53:15;;;;;;;2.55;1.58;;;;;;;;;;5114387;28;20101;-82
2023/07/21 13:55:42;;;;;;;2.25;2.05;;;;;;;;;;5115679;28;20401;-82
2023/07/21 13:58:09;;;;;;;2.08;1.40;;;;;;;;;;5114862;28;20051;-83
2023/07/21 14:00:37;;;;;;;4.03;1.70;;;;;;;;;;5120361;28;20047;-83
2023/07/21 14:03:04;;;;;;;1.95;1.58;;;;;;;;;;5118897;28;20442;-82
2023/07/21 14:05:32;;;;;;;2.33;1.60;;;;;;;;;;5118229;28;20415;-83
2023/07/21 14:07:59;;;;;;;1.55;1.50;;;;;;;;;;5115896;28;20055;-83
2023/07/21 14:10:27;;;;;;;1.63;1.50;;;;;;;;;;5116775;28;20067;-82
2023/07/21 14:12:54;;;;;;;1.48;1.35;;;;;;;;;;5118581;28;20056;-81
2023/07/21 14:15:21;;;;;;;1.60;1.50;;;;;;;;;;5117263;28;20107;-83
2023/07/21 14:17:49;;;;;;;3.65;1.88;;;;;;;;;;5116393;28;20460;-84
2023/07/21 14:20:16;;;;;;;1.50;1.40;;;;;;;;;;5117757;27;20075;-82
2023/07/21 14:22:44;;;;;;;2.20;2.00;;;;;;;;;;5115302;28;20498;-82
2023/07/21 14:25:11;;;;;;;1.85;1.70;;;;;;;;;;5115926;28;20108;-83
2023/07/21 14:27:38;;;;;;;5.40;2.03;;;;;;;;;;5116491;27;20059;-82
2023/07/21 14:30:08;;;;;;;2.25;2.05;;;;;;;;;;5115391;28;20130;-81
2023/07/21 14:32:35;;;;;;;1.85;1.75;;;;;;;;;;5116015;28;20458;-83
2023/07/21 14:35:03;;;;;;;2.63;2.03;;;;;;;;;;5114248;28;20054;-81
2023/07/21 14:37:30;;;;;;;1.90;1.80;;;;;;;;;;5114162;28;20043;-81
2023/07/21 14:39:58;;;;;;;1.70;1.60;;;;;;;;;;5115310;28;20040;-81
2023/07/21 14:42:25;;;;;;;1.90;1.80;;;;;;;;;;5114337;28;20100;-81
2023/07/21 14:44:52;;;;;;;3.92;2.13;;;;;;;;;;5115735;28;20040;-81
2023/07/21 14:47:19;;;;;;;2.83;2.25;;;;;;;;;;5114030;28;20096;-82
2023/07/21 14:49:47;;;;;;;5.35;2.17;;;;;;;;;;5114119;28;20050;-80